sensor_id;sensor_type;location;lat;lon;timestamp;P1;durP1;ratioP1;P2;durP2;ratioP2
68315;SDS011;55508;54.368;18.406;2022-10-16T00:01:32;106.15;;;52.17;;
68315;SDS011;55508;54.368;18.406;2022-10-16T00:03:59;114.95;;;52.72;;
68315;SDS011;55508;54.368;18.406;2022-10-16T00:06:28;102.53;;;49.50;;
68315;SDS011;55508;54.368;18.406;2022-10-16T00:08:55;100.78;;;48.80;;
68315;SDS011;55508;54.368;18.406;2022-10-16T00:11:24;103.80;;;48.15;;
68315;SDS011;55508;54.368;18.406;2022-10-16T00:13:55;108.80;;;49.17;;
68315;SDS011;55508;54.368;18.406;2022-10-16T00:16:23;103.35;;;49.65;;
68315;SDS011;55508;54.368;18.406;2022-10-16T00:18:51;97.90;;;47.20;;
68315;SDS011;55508;54.368;18.406;2022-10-16T00:21:19;103.10;;;48.22;;
68315;SDS011;55508;54.368;18.406;2022-10-16T00:23:51;107.50;;;47.80;;
68315;SDS011;55508;54.368;18.406;2022-10-16T00:26:23;108.18;;;48.25;;
68315;SDS011;55508;54.368;18.406;2022-10-16T00:28:50;102.68;;;47.95;;
68315;SDS011;55508;54.368;18.406;2022-10-16T00:31:19;93.55;;;46.05;;
68315;SDS011;55508;54.368;18.406;2022-10-16T00:33:48;97.68;;;45.33;;
68315;SDS011;55508;54.368;18.406;2022-10-16T00:36:16;94.55;;;44.83;;
68315;SDS011;55508;54.368;18.406;2022-10-16T00:38:45;90.95;;;42.88;;
68315;SDS011;55508;54.368;18.406;2022-10-16T00:41:14;84.75;;;42.03;;
68315;SDS011;55508;54.368;18.406;2022-10-16T00:43:43;94.43;;;43.90;;
68315;SDS011;55508;54.368;18.406;2022-10-16T00:49:07;87.63;;;41.45;;
68315;SDS011;55508;54.368;18.406;2022-10-16T00:51:33;81.97;;;40.30;;
68315;SDS011;55508;54.368;18.406;2022-10-16T00:54:13;77.22;;;38.92;;
68315;SDS011;55508;54.368;18.406;2022-10-16T00:56:42;76.45;;;39.47;;
68315;SDS011;55508;54.368;18.406;2022-10-16T00:59:13;75.75;;;38.35;;
68315;SDS011;55508;54.368;18.406;2022-10-16T01:01:43;77.55;;;38.75;;
68315;SDS011;55508;54.368;18.406;2022-10-16T01:04:10;69.53;;;35.80;;
68315;SDS011;55508;54.368;18.406;2022-10-16T01:06:43;71.63;;;36.83;;
68315;SDS011;55508;54.368;18.406;2022-10-16T01:09:21;70.00;;;35.03;;
68315;SDS011;55508;54.368;18.406;2022-10-16T01:14:53;65.45;;;35.00;;
68315;SDS011;55508;54.368;18.406;2022-10-16T01:17:33;66.70;;;35.97;;
68315;SDS011;55508;54.368;18.406;2022-10-16T01:20:06;69.82;;;36.40;;
68315;SDS011;55508;54.368;18.406;2022-10-16T01:23:01;59.95;;;34.70;;
68315;SDS011;55508;54.368;18.406;2022-10-16T01:30:31;57.20;;;33.20;;
68315;SDS011;55508;54.368;18.406;2022-10-16T01:33:01;55.58;;;32.63;;
68315;SDS011;55508;54.368;18.406;2022-10-16T01:35:38;53.20;;;31.40;;
68315;SDS011;55508;54.368;18.406;2022-10-16T01:40:48;50.53;;;32.00;;
68315;SDS011;55508;54.368;18.406;2022-10-16T01:45:49;43.90;;;29.65;;
68315;SDS011;55508;54.368;18.406;2022-10-16T01:48:17;48.65;;;29.98;;
68315;SDS011;55508;54.368;18.406;2022-10-16T01:50:48;45.15;;;28.63;;
68315;SDS011;55508;54.368;18.406;2022-10-16T01:53:28;38.13;;;27.58;;
68315;SDS011;55508;54.368;18.406;2022-10-16T01:55:56;43.78;;;28.27;;
68315;SDS011;55508;54.368;18.406;2022-10-16T01:58:25;37.92;;;27.50;;
68315;SDS011;55508;54.368;18.406;2022-10-16T02:00:53;39.78;;;27.52;;
68315;SDS011;55508;54.368;18.406;2022-10-16T02:03:22;40.75;;;27.73;;
68315;SDS011;55508;54.368;18.406;2022-10-16T02:05:53;42.75;;;28.63;;
68315;SDS011;55508;54.368;18.406;2022-10-16T02:08:21;39.53;;;26.08;;
68315;SDS011;55508;54.368;18.406;2022-10-16T02:10:49;40.65;;;28.92;;
68315;SDS011;55508;54.368;18.406;2022-10-16T02:13:17;42.40;;;28.48;;
68315;SDS011;55508;54.368;18.406;2022-10-16T02:15:49;39.35;;;27.83;;
68315;SDS011;55508;54.368;18.406;2022-10-16T02:18:19;43.38;;;29.23;;
68315;SDS011;55508;54.368;18.406;2022-10-16T02:20:55;44.70;;;28.67;;
68315;SDS011;55508;54.368;18.406;2022-10-16T02:23:24;47.15;;;28.90;;
68315;SDS011;55508;54.368;18.406;2022-10-16T02:26:12;41.55;;;28.15;;
68315;SDS011;55508;54.368;18.406;2022-10-16T02:28:48;47.30;;;28.95;;
68315;SDS011;55508;54.368;18.406;2022-10-16T02:31:23;43.58;;;28.83;;
68315;SDS011;55508;54.368;18.406;2022-10-16T02:33:54;44.63;;;29.60;;
68315;SDS011;55508;54.368;18.406;2022-10-16T02:36:23;44.33;;;28.67;;
68315;SDS011;55508;54.368;18.406;2022-10-16T02:38:50;47.42;;;28.58;;
68315;SDS011;55508;54.368;18.406;2022-10-16T02:41:18;45.85;;;30.27;;
68315;SDS011;55508;54.368;18.406;2022-10-16T02:43:45;45.13;;;29.52;;
68315;SDS011;55508;54.368;18.406;2022-10-16T02:46:12;42.72;;;28.77;;
68315;SDS011;55508;54.368;18.406;2022-10-16T02:48:39;45.55;;;29.08;;
68315;SDS011;55508;54.368;18.406;2022-10-16T02:51:06;41.35;;;28.73;;
68315;SDS011;55508;54.368;18.406;2022-10-16T02:53:33;44.60;;;28.75;;
68315;SDS011;55508;54.368;18.406;2022-10-16T02:56:00;40.65;;;29.08;;
68315;SDS011;55508;54.368;18.406;2022-10-16T02:58:27;41.13;;;28.83;;
68315;SDS011;55508;54.368;18.406;2022-10-16T03:00:54;38.70;;;28.63;;
68315;SDS011;55508;54.368;18.406;2022-10-16T03:03:21;42.83;;;29.80;;
68315;SDS011;55508;54.368;18.406;2022-10-16T03:05:48;40.35;;;27.63;;
68315;SDS011;55508;54.368;18.406;2022-10-16T03:08:16;38.22;;;27.75;;
68315;SDS011;55508;54.368;18.406;2022-10-16T03:10:44;41.90;;;28.58;;
68315;SDS011;55508;54.368;18.406;2022-10-16T03:13:11;40.85;;;28.83;;
68315;SDS011;55508;54.368;18.406;2022-10-16T03:15:38;42.28;;;29.42;;
68315;SDS011;55508;54.368;18.406;2022-10-16T03:18:05;42.50;;;28.48;;
68315;SDS011;55508;54.368;18.406;2022-10-16T03:20:32;37.80;;;28.08;;
68315;SDS011;55508;54.368;18.406;2022-10-16T03:22:59;38.13;;;28.92;;
68315;SDS011;55508;54.368;18.406;2022-10-16T03:25:26;37.47;;;27.05;;
68315;SDS011;55508;54.368;18.406;2022-10-16T03:27:53;37.15;;;27.25;;
68315;SDS011;55508;54.368;18.406;2022-10-16T03:30:20;37.53;;;27.63;;
68315;SDS011;55508;54.368;18.406;2022-10-16T03:32:47;36.28;;;27.83;;
68315;SDS011;55508;54.368;18.406;2022-10-16T03:35:14;38.35;;;27.52;;
68315;SDS011;55508;54.368;18.406;2022-10-16T03:37:41;42.08;;;30.20;;
68315;SDS011;55508;54.368;18.406;2022-10-16T03:40:08;42.97;;;29.23;;
68315;SDS011;55508;54.368;18.406;2022-10-16T03:42:36;44.58;;;31.00;;
68315;SDS011;55508;54.368;18.406;2022-10-16T03:45:03;44.45;;;31.95;;
68315;SDS011;55508;54.368;18.406;2022-10-16T03:47:31;47.00;;;32.00;;
68315;SDS011;55508;54.368;18.406;2022-10-16T03:49:59;48.95;;;32.38;;
68315;SDS011;55508;54.368;18.406;2022-10-16T03:52:27;47.60;;;33.47;;
68315;SDS011;55508;54.368;18.406;2022-10-16T03:54:54;48.45;;;34.00;;
68315;SDS011;55508;54.368;18.406;2022-10-16T03:57:21;51.00;;;34.38;;
68315;SDS011;55508;54.368;18.406;2022-10-16T03:59:49;48.45;;;33.72;;
68315;SDS011;55508;54.368;18.406;2022-10-16T04:02:16;45.60;;;32.30;;
68315;SDS011;55508;54.368;18.406;2022-10-16T04:04:43;46.78;;;31.73;;
68315;SDS011;55508;54.368;18.406;2022-10-16T04:07:10;48.10;;;31.90;;
68315;SDS011;55508;54.368;18.406;2022-10-16T04:09:37;42.70;;;31.25;;
68315;SDS011;55508;54.368;18.406;2022-10-16T04:12:04;47.25;;;32.47;;
68315;SDS011;55508;54.368;18.406;2022-10-16T04:14:31;45.80;;;31.88;;
68315;SDS011;55508;54.368;18.406;2022-10-16T04:16:58;44.72;;;30.98;;
68315;SDS011;55508;54.368;18.406;2022-10-16T04:19:25;43.63;;;30.58;;
68315;SDS011;55508;54.368;18.406;2022-10-16T04:21:53;43.92;;;29.80;;
68315;SDS011;55508;54.368;18.406;2022-10-16T04:24:20;41.80;;;29.95;;
68315;SDS011;55508;54.368;18.406;2022-10-16T04:26:47;46.60;;;30.88;;
68315;SDS011;55508;54.368;18.406;2022-10-16T04:29:14;43.75;;;30.95;;
68315;SDS011;55508;54.368;18.406;2022-10-16T04:31:41;45.05;;;31.77;;
68315;SDS011;55508;54.368;18.406;2022-10-16T04:34:08;43.38;;;30.52;;
68315;SDS011;55508;54.368;18.406;2022-10-16T04:36:35;41.95;;;30.42;;
68315;SDS011;55508;54.368;18.406;2022-10-16T04:39:02;39.72;;;29.30;;
68315;SDS011;55508;54.368;18.406;2022-10-16T04:41:29;44.00;;;30.70;;
68315;SDS011;55508;54.368;18.406;2022-10-16T04:43:56;42.78;;;30.75;;
68315;SDS011;55508;54.368;18.406;2022-10-16T04:46:23;46.47;;;32.28;;
68315;SDS011;55508;54.368;18.406;2022-10-16T04:48:50;44.58;;;31.50;;
68315;SDS011;55508;54.368;18.406;2022-10-16T04:51:17;47.50;;;32.10;;
68315;SDS011;55508;54.368;18.406;2022-10-16T04:53:45;48.53;;;34.25;;
68315;SDS011;55508;54.368;18.406;2022-10-16T04:56:12;46.00;;;33.97;;
68315;SDS011;55508;54.368;18.406;2022-10-16T04:58:39;47.53;;;33.80;;
68315;SDS011;55508;54.368;18.406;2022-10-16T05:01:06;46.78;;;33.80;;
68315;SDS011;55508;54.368;18.406;2022-10-16T05:03:33;50.30;;;35.03;;
68315;SDS011;55508;54.368;18.406;2022-10-16T05:06:01;47.88;;;33.97;;
68315;SDS011;55508;54.368;18.406;2022-10-16T05:08:28;50.33;;;35.05;;
68315;SDS011;55508;54.368;18.406;2022-10-16T05:10:55;54.38;;;35.30;;
68315;SDS011;55508;54.368;18.406;2022-10-16T05:13:21;52.80;;;36.75;;
68315;SDS011;55508;54.368;18.406;2022-10-16T05:15:49;50.33;;;35.08;;
68315;SDS011;55508;54.368;18.406;2022-10-16T05:18:17;49.92;;;35.83;;
68315;SDS011;55508;54.368;18.406;2022-10-16T05:20:44;52.05;;;35.75;;
68315;SDS011;55508;54.368;18.406;2022-10-16T05:23:11;50.63;;;34.80;;
68315;SDS011;55508;54.368;18.406;2022-10-16T05:25:38;51.17;;;34.95;;
68315;SDS011;55508;54.368;18.406;2022-10-16T05:28:05;49.63;;;35.67;;
68315;SDS011;55508;54.368;18.406;2022-10-16T05:30:32;51.17;;;35.65;;
68315;SDS011;55508;54.368;18.406;2022-10-16T05:32:59;48.90;;;35.75;;
68315;SDS011;55508;54.368;18.406;2022-10-16T05:35:26;59.42;;;40.78;;
68315;SDS011;55508;54.368;18.406;2022-10-16T05:37:53;53.92;;;37.42;;
68315;SDS011;55508;54.368;18.406;2022-10-16T05:40:20;54.38;;;38.47;;
68315;SDS011;55508;54.368;18.406;2022-10-16T05:42:48;56.67;;;38.88;;
68315;SDS011;55508;54.368;18.406;2022-10-16T05:45:15;52.63;;;38.92;;
68315;SDS011;55508;54.368;18.406;2022-10-16T05:47:42;56.33;;;39.75;;
68315;SDS011;55508;54.368;18.406;2022-10-16T05:50:10;57.03;;;40.60;;
68315;SDS011;55508;54.368;18.406;2022-10-16T05:52:37;57.45;;;40.50;;
68315;SDS011;55508;54.368;18.406;2022-10-16T05:55:04;56.28;;;40.35;;
68315;SDS011;55508;54.368;18.406;2022-10-16T05:57:31;57.47;;;40.72;;
68315;SDS011;55508;54.368;18.406;2022-10-16T05:59:59;61.08;;;41.45;;
68315;SDS011;55508;54.368;18.406;2022-10-16T06:02:26;57.58;;;41.45;;
68315;SDS011;55508;54.368;18.406;2022-10-16T06:04:53;59.03;;;42.00;;
68315;SDS011;55508;54.368;18.406;2022-10-16T06:07:21;64.13;;;42.17;;
68315;SDS011;55508;54.368;18.406;2022-10-16T06:09:49;67.70;;;44.45;;
68315;SDS011;55508;54.368;18.406;2022-10-16T06:12:20;65.88;;;44.38;;
68315;SDS011;55508;54.368;18.406;2022-10-16T06:14:47;69.40;;;45.30;;
68315;SDS011;55508;54.368;18.406;2022-10-16T06:17:14;69.40;;;45.47;;
68315;SDS011;55508;54.368;18.406;2022-10-16T06:19:41;72.70;;;46.55;;
68315;SDS011;55508;54.368;18.406;2022-10-16T06:22:08;70.13;;;45.25;;
68315;SDS011;55508;54.368;18.406;2022-10-16T06:24:35;70.82;;;44.50;;
68315;SDS011;55508;54.368;18.406;2022-10-16T06:27:03;74.95;;;45.67;;
68315;SDS011;55508;54.368;18.406;2022-10-16T06:29:30;78.55;;;46.63;;
68315;SDS011;55508;54.368;18.406;2022-10-16T06:31:57;78.47;;;46.83;;
68315;SDS011;55508;54.368;18.406;2022-10-16T06:34:24;76.57;;;46.33;;
68315;SDS011;55508;54.368;18.406;2022-10-16T06:36:51;80.40;;;45.80;;
68315;SDS011;55508;54.368;18.406;2022-10-16T06:39:18;71.18;;;43.55;;
68315;SDS011;55508;54.368;18.406;2022-10-16T06:41:45;74.93;;;42.95;;
68315;SDS011;55508;54.368;18.406;2022-10-16T06:44:14;64.85;;;42.88;;
68315;SDS011;55508;54.368;18.406;2022-10-16T06:46:41;66.35;;;44.08;;
68315;SDS011;55508;54.368;18.406;2022-10-16T06:49:08;62.92;;;40.47;;
68315;SDS011;55508;54.368;18.406;2022-10-16T06:51:35;65.35;;;41.00;;
68315;SDS011;55508;54.368;18.406;2022-10-16T06:54:09;67.07;;;40.97;;
68315;SDS011;55508;54.368;18.406;2022-10-16T06:56:36;65.90;;;41.55;;
68315;SDS011;55508;54.368;18.406;2022-10-16T06:59:03;63.53;;;39.28;;
68315;SDS011;55508;54.368;18.406;2022-10-16T07:01:31;64.80;;;40.30;;
68315;SDS011;55508;54.368;18.406;2022-10-16T07:03:58;61.55;;;39.35;;
68315;SDS011;55508;54.368;18.406;2022-10-16T07:06:26;59.88;;;37.13;;
68315;SDS011;55508;54.368;18.406;2022-10-16T07:08:54;55.42;;;34.65;;
68315;SDS011;55508;54.368;18.406;2022-10-16T07:11:21;52.53;;;34.38;;
68315;SDS011;55508;54.368;18.406;2022-10-16T07:13:50;49.33;;;31.73;;
68315;SDS011;55508;54.368;18.406;2022-10-16T07:18:51;42.58;;;28.67;;
68315;SDS011;55508;54.368;18.406;2022-10-16T07:21:24;38.30;;;28.20;;
68315;SDS011;55508;54.368;18.406;2022-10-16T07:23:53;44.58;;;30.48;;
68315;SDS011;55508;54.368;18.406;2022-10-16T07:26:21;47.75;;;32.67;;
68315;SDS011;55508;54.368;18.406;2022-10-16T07:28:49;46.65;;;33.60;;
68315;SDS011;55508;54.368;18.406;2022-10-16T07:31:17;56.75;;;35.63;;
68315;SDS011;55508;54.368;18.406;2022-10-16T07:33:46;58.25;;;38.13;;
68315;SDS011;55508;54.368;18.406;2022-10-16T07:36:15;57.33;;;37.13;;
68315;SDS011;55508;54.368;18.406;2022-10-16T07:38:44;63.38;;;39.88;;
68315;SDS011;55508;54.368;18.406;2022-10-16T07:41:12;62.05;;;39.15;;
68315;SDS011;55508;54.368;18.406;2022-10-16T07:43:45;59.63;;;39.67;;
68315;SDS011;55508;54.368;18.406;2022-10-16T07:46:13;70.28;;;41.80;;
68315;SDS011;55508;54.368;18.406;2022-10-16T07:48:41;64.55;;;40.75;;
68315;SDS011;55508;54.368;18.406;2022-10-16T07:51:13;67.88;;;41.88;;
68315;SDS011;55508;54.368;18.406;2022-10-16T07:53:41;69.55;;;42.97;;
68315;SDS011;55508;54.368;18.406;2022-10-16T07:56:08;68.57;;;42.47;;
68315;SDS011;55508;54.368;18.406;2022-10-16T07:58:36;68.68;;;42.15;;
68315;SDS011;55508;54.368;18.406;2022-10-16T08:01:06;66.85;;;41.92;;
68315;SDS011;55508;54.368;18.406;2022-10-16T08:03:38;68.82;;;42.08;;
68315;SDS011;55508;54.368;18.406;2022-10-16T08:06:05;67.95;;;41.90;;
68315;SDS011;55508;54.368;18.406;2022-10-16T08:08:32;67.20;;;42.05;;
68315;SDS011;55508;54.368;18.406;2022-10-16T08:10:59;66.15;;;41.58;;
68315;SDS011;55508;54.368;18.406;2022-10-16T08:13:26;64.30;;;40.97;;
68315;SDS011;55508;54.368;18.406;2022-10-16T08:15:53;67.90;;;42.22;;
68315;SDS011;55508;54.368;18.406;2022-10-16T08:18:20;62.72;;;40.88;;
68315;SDS011;55508;54.368;18.406;2022-10-16T08:20:48;65.13;;;40.78;;
68315;SDS011;55508;54.368;18.406;2022-10-16T08:23:21;64.13;;;39.67;;
68315;SDS011;55508;54.368;18.406;2022-10-16T08:25:48;63.92;;;41.00;;
68315;SDS011;55508;54.368;18.406;2022-10-16T08:28:15;58.67;;;40.05;;
68315;SDS011;55508;54.368;18.406;2022-10-16T08:30:43;59.08;;;40.08;;
68315;SDS011;55508;54.368;18.406;2022-10-16T08:33:10;59.22;;;38.63;;
68315;SDS011;55508;54.368;18.406;2022-10-16T08:35:37;61.50;;;40.22;;
68315;SDS011;55508;54.368;18.406;2022-10-16T08:38:04;61.53;;;39.20;;
68315;SDS011;55508;54.368;18.406;2022-10-16T08:40:33;59.78;;;39.97;;
68315;SDS011;55508;54.368;18.406;2022-10-16T08:45:40;61.13;;;39.80;;
68315;SDS011;55508;54.368;18.406;2022-10-16T08:51:56;59.13;;;38.72;;
68315;SDS011;55508;54.368;18.406;2022-10-16T08:57:11;57.00;;;37.75;;
68315;SDS011;55508;54.368;18.406;2022-10-16T08:59:45;55.13;;;36.58;;
68315;SDS011;55508;54.368;18.406;2022-10-16T09:07:32;53.33;;;35.45;;
68315;SDS011;55508;54.368;18.406;2022-10-16T09:13:09;49.17;;;35.03;;
68315;SDS011;55508;54.368;18.406;2022-10-16T09:21:16;51.40;;;35.45;;
68315;SDS011;55508;54.368;18.406;2022-10-16T09:23:48;49.45;;;33.90;;
68315;SDS011;55508;54.368;18.406;2022-10-16T09:26:15;50.70;;;34.35;;
68315;SDS011;55508;54.368;18.406;2022-10-16T09:28:44;49.65;;;34.05;;
68315;SDS011;55508;54.368;18.406;2022-10-16T09:31:15;48.83;;;33.63;;
68315;SDS011;55508;54.368;18.406;2022-10-16T09:33:51;45.55;;;34.17;;
68315;SDS011;55508;54.368;18.406;2022-10-16T09:36:21;43.38;;;32.63;;
68315;SDS011;55508;54.368;18.406;2022-10-16T09:38:50;43.80;;;32.42;;
68315;SDS011;55508;54.368;18.406;2022-10-16T09:41:20;48.88;;;33.63;;
68315;SDS011;55508;54.368;18.406;2022-10-16T09:43:49;46.17;;;33.33;;
68315;SDS011;55508;54.368;18.406;2022-10-16T09:49:02;52.33;;;35.10;;
68315;SDS011;55508;54.368;18.406;2022-10-16T09:51:35;48.03;;;35.15;;
68315;SDS011;55508;54.368;18.406;2022-10-16T09:54:13;54.22;;;34.58;;
68315;SDS011;55508;54.368;18.406;2022-10-16T09:56:41;49.53;;;33.83;;
68315;SDS011;55508;54.368;18.406;2022-10-16T09:59:11;52.83;;;36.10;;
68315;SDS011;55508;54.368;18.406;2022-10-16T10:01:40;56.70;;;37.22;;
68315;SDS011;55508;54.368;18.406;2022-10-16T10:04:10;47.67;;;34.88;;
68315;SDS011;55508;54.368;18.406;2022-10-16T10:06:40;49.70;;;34.80;;
68315;SDS011;55508;54.368;18.406;2022-10-16T10:09:17;53.13;;;35.90;;
68315;SDS011;55508;54.368;18.406;2022-10-16T10:14:54;51.22;;;35.03;;
68315;SDS011;55508;54.368;18.406;2022-10-16T10:17:26;51.17;;;35.92;;
68315;SDS011;55508;54.368;18.406;2022-10-16T10:19:54;50.17;;;36.38;;
68315;SDS011;55508;54.368;18.406;2022-10-16T10:30:36;47.63;;;35.38;;
68315;SDS011;55508;54.368;18.406;2022-10-16T10:36:06;51.53;;;36.60;;
68315;SDS011;55508;54.368;18.406;2022-10-16T10:57:56;43.38;;;32.60;;
68315;SDS011;55508;54.368;18.406;2022-10-16T11:05:56;31.55;;;28.15;;
68315;SDS011;55508;54.368;18.406;2022-10-16T11:11:34;33.03;;;27.67;;
68315;SDS011;55508;54.368;18.406;2022-10-16T11:24:48;24.45;;;21.67;;
68315;SDS011;55508;54.368;18.406;2022-10-16T11:27:33;24.08;;;21.00;;
68315;SDS011;55508;54.368;18.406;2022-10-16T11:30:30;21.83;;;19.80;;
68315;SDS011;55508;54.368;18.406;2022-10-16T11:36:00;18.90;;;17.23;;
68315;SDS011;55508;54.368;18.406;2022-10-16T11:38:43;20.25;;;18.25;;
68315;SDS011;55508;54.368;18.406;2022-10-16T11:44:27;17.40;;;15.85;;
68315;SDS011;55508;54.368;18.406;2022-10-16T11:50:22;15.63;;;14.15;;
68315;SDS011;55508;54.368;18.406;2022-10-16T11:53:23;14.75;;;13.45;;
68315;SDS011;55508;54.368;18.406;2022-10-16T11:56:21;15.55;;;14.05;;
68315;SDS011;55508;54.368;18.406;2022-10-16T12:06:45;15.10;;;13.68;;
68315;SDS011;55508;54.368;18.406;2022-10-16T12:12:02;14.23;;;12.80;;
68315;SDS011;55508;54.368;18.406;2022-10-16T12:17:26;13.60;;;12.20;;
68315;SDS011;55508;54.368;18.406;2022-10-16T12:22:52;12.75;;;11.65;;
68315;SDS011;55508;54.368;18.406;2022-10-16T12:25:40;11.60;;;10.80;;
68315;SDS011;55508;54.368;18.406;2022-10-16T12:30:42;10.70;;;9.80;;
68315;SDS011;55508;54.368;18.406;2022-10-16T12:38:59;9.68;;;8.88;;
68315;SDS011;55508;54.368;18.406;2022-10-16T12:41:30;9.80;;;9.00;;
68315;SDS011;55508;54.368;18.406;2022-10-16T12:44:02;8.57;;;7.65;;
68315;SDS011;55508;54.368;18.406;2022-10-16T12:51:43;8.25;;;7.57;;
68315;SDS011;55508;54.368;18.406;2022-10-16T12:54:14;7.90;;;7.15;;
68315;SDS011;55508;54.368;18.406;2022-10-16T12:57:18;8.02;;;7.50;;
68315;SDS011;55508;54.368;18.406;2022-10-16T13:11:19;7.53;;;6.95;;
68315;SDS011;55508;54.368;18.406;2022-10-16T13:19:57;6.88;;;6.18;;
68315;SDS011;55508;54.368;18.406;2022-10-16T13:31:16;7.03;;;6.53;;
68315;SDS011;55508;54.368;18.406;2022-10-16T13:33:21;6.63;;;6.13;;
68315;SDS011;55508;54.368;18.406;2022-10-16T13:35:57;7.57;;;6.85;;
68315;SDS011;55508;54.368;18.406;2022-10-16T13:38:26;7.07;;;6.47;;
68315;SDS011;55508;54.368;18.406;2022-10-16T13:43:27;7.10;;;6.40;;
68315;SDS011;55508;54.368;18.406;2022-10-16T13:45:59;7.80;;;7.00;;
68315;SDS011;55508;54.368;18.406;2022-10-16T13:48:28;7.57;;;7.00;;
68315;SDS011;55508;54.368;18.406;2022-10-16T13:51:10;7.38;;;6.75;;
68315;SDS011;55508;54.368;18.406;2022-10-16T13:53:39;7.55;;;6.88;;
68315;SDS011;55508;54.368;18.406;2022-10-16T13:56:10;8.10;;;7.40;;
68315;SDS011;55508;54.368;18.406;2022-10-16T13:58:38;7.80;;;7.30;;
68315;SDS011;55508;54.368;18.406;2022-10-16T14:04:10;7.90;;;7.10;;
68315;SDS011;55508;54.368;18.406;2022-10-16T14:06:43;7.93;;;7.25;;
68315;SDS011;55508;54.368;18.406;2022-10-16T14:11:48;8.15;;;7.55;;
68315;SDS011;55508;54.368;18.406;2022-10-16T14:14:20;8.82;;;8.02;;
68315;SDS011;55508;54.368;18.406;2022-10-16T14:16:48;13.73;;;9.10;;
68315;SDS011;55508;54.368;18.406;2022-10-16T14:19:20;9.75;;;7.72;;
68315;SDS011;55508;54.368;18.406;2022-10-16T14:21:57;9.13;;;8.45;;
68315;SDS011;55508;54.368;18.406;2022-10-16T14:24:26;15.45;;;8.60;;
68315;SDS011;55508;54.368;18.406;2022-10-16T14:26:57;9.07;;;8.30;;
68315;SDS011;55508;54.368;18.406;2022-10-16T14:29:25;9.65;;;8.88;;
68315;SDS011;55508;54.368;18.406;2022-10-16T14:32:00;8.85;;;8.15;;
68315;SDS011;55508;54.368;18.406;2022-10-16T14:34:33;10.23;;;9.52;;
68315;SDS011;55508;54.368;18.406;2022-10-16T14:37:40;9.80;;;9.20;;
68315;SDS011;55508;54.368;18.406;2022-10-16T14:40:00;9.65;;;9.02;;
68315;SDS011;55508;54.368;18.406;2022-10-16T14:42:29;10.27;;;9.48;;
68315;SDS011;55508;54.368;18.406;2022-10-16T14:44:57;10.10;;;9.38;;
68315;SDS011;55508;54.368;18.406;2022-10-16T14:47:25;9.95;;;9.27;;
68315;SDS011;55508;54.368;18.406;2022-10-16T14:49:54;10.00;;;9.30;;
68315;SDS011;55508;54.368;18.406;2022-10-16T14:52:22;10.93;;;9.80;;
68315;SDS011;55508;54.368;18.406;2022-10-16T14:54:49;11.23;;;10.27;;
68315;SDS011;55508;54.368;18.406;2022-10-16T14:57:22;25.52;;;17.45;;
68315;SDS011;55508;54.368;18.406;2022-10-16T14:59:51;21.48;;;18.20;;
68315;SDS011;55508;54.368;18.406;2022-10-16T15:04:54;22.58;;;20.17;;
68315;SDS011;55508;54.368;18.406;2022-10-16T15:07:21;17.55;;;15.85;;
68315;SDS011;55508;54.368;18.406;2022-10-16T15:09:48;16.13;;;12.48;;
68315;SDS011;55508;54.368;18.406;2022-10-16T15:12:16;12.75;;;11.60;;
68315;SDS011;55508;54.368;18.406;2022-10-16T15:14:43;14.60;;;11.68;;
68315;SDS011;55508;54.368;18.406;2022-10-16T15:17:10;15.55;;;12.27;;
68315;SDS011;55508;54.368;18.406;2022-10-16T15:19:38;11.77;;;10.85;;
68315;SDS011;55508;54.368;18.406;2022-10-16T15:22:05;11.30;;;10.48;;
68315;SDS011;55508;54.368;18.406;2022-10-16T15:24:32;11.70;;;10.73;;
68315;SDS011;55508;54.368;18.406;2022-10-16T15:26:59;11.68;;;10.88;;
68315;SDS011;55508;54.368;18.406;2022-10-16T15:29:26;12.20;;;11.30;;
68315;SDS011;55508;54.368;18.406;2022-10-16T15:31:53;12.45;;;11.50;;
68315;SDS011;55508;54.368;18.406;2022-10-16T15:34:20;12.60;;;11.60;;
68315;SDS011;55508;54.368;18.406;2022-10-16T15:36:47;23.02;;;19.35;;
68315;SDS011;55508;54.368;18.406;2022-10-16T15:39:15;43.72;;;30.48;;
68315;SDS011;55508;54.368;18.406;2022-10-16T15:41:44;69.72;;;45.97;;
68315;SDS011;55508;54.368;18.406;2022-10-16T15:44:17;27.35;;;22.25;;
68315;SDS011;55508;54.368;18.406;2022-10-16T15:46:44;18.02;;;15.57;;
68315;SDS011;55508;54.368;18.406;2022-10-16T15:49:12;17.42;;;13.85;;
68315;SDS011;55508;54.368;18.406;2022-10-16T15:51:40;14.80;;;13.50;;
68315;SDS011;55508;54.368;18.406;2022-10-16T15:54:07;15.13;;;13.60;;
68315;SDS011;55508;54.368;18.406;2022-10-16T15:56:35;22.30;;;17.45;;
68315;SDS011;55508;54.368;18.406;2022-10-16T15:59:04;19.75;;;17.63;;
68315;SDS011;55508;54.368;18.406;2022-10-16T16:01:34;19.27;;;17.20;;
68315;SDS011;55508;54.368;18.406;2022-10-16T16:04:02;17.00;;;15.25;;
68315;SDS011;55508;54.368;18.406;2022-10-16T16:06:41;15.23;;;13.77;;
68315;SDS011;55508;54.368;18.406;2022-10-16T16:09:11;14.10;;;12.88;;
68315;SDS011;55508;54.368;18.406;2022-10-16T16:11:40;14.25;;;13.13;;
68315;SDS011;55508;54.368;18.406;2022-10-16T16:14:07;14.60;;;13.30;;
68315;SDS011;55508;54.368;18.406;2022-10-16T16:16:37;17.27;;;13.95;;
68315;SDS011;55508;54.368;18.406;2022-10-16T16:19:05;15.88;;;14.45;;
68315;SDS011;55508;54.368;18.406;2022-10-16T16:21:37;15.82;;;14.27;;
68315;SDS011;55508;54.368;18.406;2022-10-16T16:24:04;19.95;;;15.05;;
68315;SDS011;55508;54.368;18.406;2022-10-16T16:26:35;19.10;;;16.13;;
68315;SDS011;55508;54.368;18.406;2022-10-16T16:29:06;17.57;;;15.67;;
68315;SDS011;55508;54.368;18.406;2022-10-16T16:31:34;18.67;;;16.80;;
68315;SDS011;55508;54.368;18.406;2022-10-16T16:34:02;21.52;;;16.80;;
68315;SDS011;55508;54.368;18.406;2022-10-16T16:36:29;18.23;;;16.63;;
68315;SDS011;55508;54.368;18.406;2022-10-16T16:38:57;19.00;;;17.10;;
68315;SDS011;55508;54.368;18.406;2022-10-16T16:41:25;23.08;;;18.45;;
68315;SDS011;55508;54.368;18.406;2022-10-16T16:43:54;22.25;;;19.60;;
68315;SDS011;55508;54.368;18.406;2022-10-16T16:46:21;30.33;;;21.20;;
68315;SDS011;55508;54.368;18.406;2022-10-16T16:48:48;31.77;;;28.25;;
68315;SDS011;55508;54.368;18.406;2022-10-16T16:51:20;39.95;;;34.50;;
68315;SDS011;55508;54.368;18.406;2022-10-16T16:53:48;30.17;;;26.95;;
68315;SDS011;55508;54.368;18.406;2022-10-16T16:56:16;26.25;;;23.10;;
68315;SDS011;55508;54.368;18.406;2022-10-16T16:58:45;24.80;;;21.98;;
68315;SDS011;55508;54.368;18.406;2022-10-16T17:01:12;28.92;;;22.17;;
68315;SDS011;55508;54.368;18.406;2022-10-16T17:03:47;25.13;;;22.20;;
68315;SDS011;55508;54.368;18.406;2022-10-16T17:06:17;24.10;;;21.05;;
68315;SDS011;55508;54.368;18.406;2022-10-16T17:08:46;24.75;;;21.77;;
68315;SDS011;55508;54.368;18.406;2022-10-16T17:11:15;28.75;;;22.25;;
68315;SDS011;55508;54.368;18.406;2022-10-16T17:13:44;27.85;;;22.33;;
68315;SDS011;55508;54.368;18.406;2022-10-16T17:16:11;29.52;;;22.08;;
68315;SDS011;55508;54.368;18.406;2022-10-16T17:18:38;26.63;;;23.73;;